Time;durP1;ratioP1;P1;durP2;ratioP2;P2;SDS_P1;SDS_P2;PMS_P1;PMS_P2;Temp;Humidity;BMP_temperature;BMP_pressure;BME280_temperature;BME280_humidity;BME280_pressure;Samples;Min_cycle;Max_cycle;Signal;HPM_P1;HPM_P2
2022/10/12 00:02:12;;;;;;;9.50;2.15;;;6.10;99.90;;;5.24;100.00;97826.75;6204907;23;20032;-68
2022/10/12 00:04:39;;;;;;;12.45;2.15;;;6.00;99.90;;;5.21;100.00;97824.25;6230063;23;20752;-68
2022/10/12 00:07:06;;;;;;;11.30;2.35;;;6.00;99.90;;;5.17;100.00;97823.44;6206294;23;20016;-68
2022/10/12 00:09:33;;;;;;;10.07;2.17;;;5.90;99.90;;;5.17;100.00;97827.72;6206371;23;20032;-68
2022/10/12 00:11:59;;;;;;;8.38;2.03;;;5.90;99.90;;;5.14;100.00;97823.50;6207034;23;20025;-67
2022/10/12 00:14:26;;;;;;;13.77;3.25;;;5.90;99.90;;;5.17;100.00;97828.56;6206880;23;20364;-68
2022/10/12 00:16:53;;;;;;;12.57;3.42;;;5.90;99.90;;;5.19;100.00;97818.25;6206270;23;20020;-67
2022/10/12 00:19:20;;;;;;;9.93;2.00;;;5.90;99.90;;;5.24;100.00;97809.59;6206543;23;20098;-68
2022/10/12 00:21:47;;;;;;;15.38;2.28;;;5.90;99.90;;;5.30;100.00;97807.78;6203993;23;20016;-68
2022/10/12 00:24:14;;;;;;;11.63;2.67;;;5.90;99.90;;;5.19;100.00;97823.41;6203797;23;20035;-69
2022/10/12 00:26:41;;;;;;;11.32;2.42;;;5.90;99.90;;;5.27;100.00;97807.81;6206835;23;20096;-67
2022/10/12 00:29:08;;;;;;;14.80;2.70;;;5.90;99.90;;;5.30;100.00;97811.22;6206089;23;20032;-69
2022/10/12 00:31:35;;;;;;;14.02;2.47;;;5.90;99.90;;;5.31;100.00;97814.63;6206938;23;20036;-68
2022/10/12 00:34:03;;;;;;;13.73;2.50;;;6.00;99.90;;;5.32;100.00;97813.75;6205901;23;20807;-68
2022/10/12 00:36:34;;;;;;;11.50;2.42;;;5.90;99.90;;;5.37;100.00;97822.25;6204389;23;20029;-69
2022/10/12 00:39:04;;;;;;;6.85;2.03;;;6.00;99.90;;;5.47;100.00;97821.19;6206420;23;20024;-68
2022/10/12 00:41:36;;;;;;;13.40;2.10;;;6.10;99.90;;;5.49;100.00;97819.44;6206151;23;20040;-68
2022/10/12 00:44:23;;;;;;;9.13;2.20;;;6.10;99.90;;;5.29;100.00;97824.09;6203840;23;20028;-68
2022/10/12 00:47:00;;;;;;;12.73;2.22;;;6.00;99.90;;;5.16;100.00;97823.47;6205877;23;20020;-68
2022/10/12 00:49:27;;;;;;;10.73;2.40;;;5.90;99.90;;;5.13;100.00;97829.53;6205093;23;20024;-68
2022/10/12 00:52:09;;;;;;;18.00;2.53;;;5.90;99.90;;;5.16;100.00;97824.31;6204221;23;20043;-69
2022/10/12 00:54:42;;;;;;;13.55;2.95;;;5.80;99.90;;;5.23;100.00;97833.63;6206825;23;20035;-68
2022/10/12 00:57:12;;;;;;;7.53;2.05;;;5.90;99.90;;;5.22;100.00;97828.50;6206260;23;20039;-68
2022/10/12 00:59:54;;;;;;;10.10;2.28;;;5.80;99.90;;;5.13;100.00;97831.22;6204447;23;20021;-68
2022/10/12 01:02:25;;;;;;;9.55;2.20;;;5.80;99.90;;;5.06;100.00;97833.06;6203462;23;20028;-67
2022/10/12 01:04:52;;;;;;;16.15;2.80;;;5.80;99.90;;;5.00;100.00;97830.59;6203754;23;20028;-67
2022/10/12 01:07:19;;;;;;;13.05;2.78;;;5.70;99.90;;;4.97;100.00;97828.06;6205088;23;20059;-69
2022/10/12 01:09:47;;;;;;;14.07;3.40;;;5.70;99.90;;;4.95;100.00;97825.53;6229844;23;20025;-69
2022/10/12 01:12:15;;;;;;;14.00;4.18;;;5.70;99.90;;;5.01;100.00;97817.69;6204914;23;20031;-68
2022/10/12 01:14:42;;;;;;;20.55;5.15;;;5.70;99.90;;;4.98;100.00;97822.06;6204926;23;20642;-69
2022/10/12 01:17:23;;;;;;;19.40;3.72;;;5.70;99.90;;;5.00;100.00;97812.59;6205847;23;20047;-69
2022/10/12 01:20:20;;;;;;;6.90;1.85;;;5.70;99.90;;;5.01;100.00;97815.13;6205247;23;20020;-68
2022/10/12 01:23:17;;;;;;;13.27;2.10;;;5.70;99.90;;;5.11;100.00;97809.81;6203722;23;20021;-69
2022/10/12 01:26:23;;;;;;;15.25;3.08;;;5.70;99.90;;;4.96;100.00;97814.34;6206201;23;20024;-68
2022/10/12 01:28:53;;;;;;;17.67;3.05;;;5.70;99.90;;;4.91;100.00;97812.75;6206031;23;20071;-68
2022/10/12 01:31:41;;;;;;;13.30;2.95;;;5.60;99.90;;;4.89;100.00;97810.19;6206167;23;20090;-69
2022/10/12 01:34:33;;;;;;;10.35;3.45;;;5.60;99.90;;;4.84;100.00;97808.56;6205755;23;20310;-68
2022/10/12 01:37:10;;;;;;;16.08;2.72;;;5.60;99.90;;;4.76;100.00;97806.94;6204425;23;20368;-69
2022/10/12 01:39:46;;;;;;;10.70;3.25;;;5.60;99.90;;;4.77;100.00;97800.09;6203555;23;20028;-69
2022/10/12 01:42:21;;;;;;;14.38;2.70;;;5.50;99.90;;;4.73;100.00;97791.56;6204959;23;20048;-69
2022/10/12 01:44:48;;;;;;;13.55;2.78;;;5.50;99.90;;;4.77;100.00;97797.53;6204241;23;20024;-68
2022/10/12 01:47:15;;;;;;;7.07;2.60;;;5.50;99.90;;;4.75;100.00;97791.56;6204714;23;20027;-68
2022/10/12 01:49:42;;;;;;;10.52;3.10;;;5.50;99.90;;;4.73;100.00;97786.44;6206426;23;20078;-69
2022/10/12 01:52:53;;;;;;;11.68;2.42;;;5.50;99.90;;;4.68;100.00;97797.69;6205944;23;20032;-69
2022/10/12 01:55:44;;;;;;;11.98;2.72;;;5.50;99.90;;;4.73;100.00;97785.59;6206079;23;20032;-69
2022/10/12 01:58:26;;;;;;;13.75;2.10;;;5.50;99.90;;;4.73;100.00;97786.44;6203196;23;20021;-67
2022/10/12 02:01:19;;;;;;;14.00;1.95;;;5.50;99.90;;;4.77;100.00;97785.53;6205587;23;20040;-69
2022/10/12 02:04:05;;;;;;;17.38;3.28;;;5.50;99.90;;;4.85;100.00;97774.25;6204382;23;20092;-69
2022/10/12 02:06:45;;;;;;;9.75;2.83;;;5.50;99.90;;;4.91;100.00;97772.44;6204295;23;20360;-69
2022/10/12 02:09:21;;;;;;;11.35;2.20;;;5.50;99.90;;;4.98;100.00;97761.16;6203633;23;20794;-69
2022/10/12 02:11:52;;;;;;;7.45;1.92;;;5.60;99.90;;;4.96;100.00;97762.06;6205286;23;20396;-69
2022/10/12 02:14:25;;;;;;;12.07;1.98;;;5.60;99.90;;;5.01;100.00;97752.53;6204528;23;20090;-68
2022/10/12 02:16:55;;;;;;;;;;;5.70;99.90;;;4.92;100.00;97756.09;6205022;23;20036;-67
2022/10/12 02:19:27;;;;;;;16.65;2.22;;;5.60;99.90;;;4.95;100.00;97755.19;6203547;23;19919;-67
2022/10/12 02:21:59;;;;;;;9.55;1.95;;;5.60;99.90;;;4.93;100.00;97754.41;6203554;23;20538;-67
2022/10/12 02:24:30;;;;;;;8.05;1.90;;;5.60;99.90;;;4.90;100.00;97747.56;6204614;23;20028;-69
2022/10/12 02:26:58;;;;;;;16.73;2.38;;;5.60;99.90;;;4.85;100.00;97749.38;6205778;23;20020;-68
2022/10/12 02:29:40;;;;;;;9.57;2.40;;;5.50;99.90;;;4.88;100.00;97743.31;6207505;23;20025;-69
2022/10/12 02:32:29;;;;;;;10.80;1.80;;;5.50;99.90;;;4.73;100.00;97749.59;6207088;23;20032;-69
2022/10/12 02:35:07;;;;;;;14.70;2.33;;;5.50;99.90;;;4.68;100.00;97744.53;6207655;23;20028;-69
2022/10/12 02:37:40;;;;;;;12.85;2.25;;;5.50;99.90;;;4.70;100.00;97744.47;6206870;23;20024;-69
2022/10/12 02:40:26;;;;;;;;;;;5.50;99.90;;;4.76;100.00;97752.94;6206321;23;20032;-69
2022/10/12 02:43:00;;;;;;;12.95;2.10;;;5.50;99.90;;;4.80;100.00;97746.88;6207015;23;19981;-69
2022/10/12 02:45:41;;;;;;;9.68;1.88;;;5.50;99.90;;;4.84;100.00;97739.13;6206565;23;20120;-68
2022/10/12 02:48:10;;;;;;;14.52;2.63;;;5.50;99.90;;;4.85;100.00;97730.53;6203936;23;20420;-68
2022/10/12 02:50:37;;;;;;;15.18;2.00;;;5.50;99.90;;;4.75;100.00;97728.13;6205236;23;20021;-69
2022/10/12 02:53:05;;;;;;;13.15;2.55;;;5.50;99.90;;;4.68;100.00;97736.81;6217795;23;20027;-68
2022/10/12 02:56:02;;;;;;;13.27;1.80;;;5.40;99.90;;;4.76;100.00;97729.81;6206079;23;20468;-69
2022/10/12 02:58:29;;;;;;;9.85;1.83;;;5.40;99.90;;;4.76;100.00;97724.66;6198134;23;20031;-69
2022/10/12 03:00:56;;;;;;;13.43;2.47;;;5.50;99.90;;;4.80;100.00;97722.91;6206121;23;20777;-68
2022/10/12 03:03:24;;;;;;;13.20;2.20;;;5.50;99.90;;;4.82;100.00;97727.13;6207693;23;20077;-69
2022/10/12 03:05:50;;;;;;;9.43;1.85;;;5.50;99.90;;;4.77;100.00;97740.97;6207194;23;20028;-68
2022/10/12 03:08:17;;;;;;;10.65;2.30;;;5.50;99.90;;;4.67;100.00;97740.25;6206466;23;20031;-69
2022/10/12 03:10:44;;;;;;;12.55;2.75;;;5.40;99.90;;;4.68;100.00;97738.53;6208872;23;20021;-69
2022/10/12 03:13:11;;;;;;;11.55;2.08;;;5.40;99.90;;;4.75;100.00;97740.13;6207003;23;20029;-69
2022/10/12 03:15:38;;;;;;;12.20;1.95;;;5.40;99.90;;;4.73;100.00;97737.56;6207096;23;20044;-68
2022/10/12 03:18:05;;;;;;;7.90;1.98;;;5.40;99.90;;;4.76;100.00;97731.53;6206567;23;20025;-69
2022/10/12 03:20:32;;;;;;;10.57;1.80;;;5.40;99.90;;;4.80;100.00;97731.44;6206396;23;20032;-68
2022/10/12 03:22:59;;;;;;;9.57;1.90;;;5.50;99.90;;;4.73;100.00;97726.44;6206566;23;20083;-69
2022/10/12 03:25:25;;;;;;;8.73;1.88;;;5.40;99.90;;;4.69;100.00;97738.50;6207238;23;20020;-69
2022/10/12 03:27:52;;;;;;;14.98;1.98;;;5.30;99.90;;;4.64;100.00;97744.59;6205563;23;20681;-69
2022/10/12 03:30:19;;;;;;;13.70;2.78;;;5.30;99.90;;;4.65;100.00;97744.56;6207481;23;20391;-69
2022/10/12 03:32:46;;;;;;;13.43;2.53;;;5.30;99.90;;;4.65;100.00;97739.41;6206644;23;20025;-68
2022/10/12 03:35:13;;;;;;;10.77;1.70;;;5.30;99.90;;;4.63;100.00;97748.91;6205970;23;20440;-68
2022/10/12 03:37:40;;;;;;;11.40;2.15;;;5.30;99.90;;;4.68;100.00;97746.25;6205534;23;20024;-68
2022/10/12 03:40:08;;;;;;;7.03;1.73;;;5.20;99.90;;;4.63;100.00;97748.03;6206286;23;20075;-68
2022/10/12 03:42:35;;;;;;;11.23;1.98;;;5.20;99.90;;;4.58;100.00;97748.09;6207019;23;20021;-68
2022/10/12 03:45:04;;;;;;;7.95;1.83;;;5.20;99.90;;;4.54;100.00;97744.75;6207165;23;20025;-68
2022/10/12 03:47:31;;;;;;;11.27;1.70;;;5.20;99.90;;;4.54;100.00;97749.91;6206946;23;20732;-69
2022/10/12 03:49:57;;;;;;;9.63;1.88;;;5.20;99.90;;;4.51;100.00;97752.50;6230152;23;20025;-68
2022/10/12 03:52:24;;;;;;;12.70;2.00;;;5.20;99.90;;;4.52;100.00;97751.63;6205433;23;20639;-68
2022/10/12 03:54:51;;;;;;;11.48;2.38;;;5.20;99.90;;;4.38;100.00;97751.84;6206830;23;20020;-68
2022/10/12 03:57:18;;;;;;;21.02;2.45;;;5.10;99.90;;;4.25;100.00;97750.31;6205932;23;20356;-68
2022/10/12 03:59:45;;;;;;;8.43;2.20;;;5.00;99.90;;;4.27;100.00;97746.03;6206395;23;20025;-68
2022/10/12 04:02:12;;;;;;;23.63;8.35;;;5.10;99.90;;;4.22;100.00;97746.94;6206643;23;20558;-68
2022/10/12 04:04:43;;;;;;;86.82;34.28;;;5.00;99.90;;;4.29;100.00;97744.28;6207314;23;20104;-68
2022/10/12 04:07:10;;;;;;;321.95;137.52;;;5.10;99.90;;;4.32;100.00;97744.22;6205374;23;20020;-68
2022/10/12 04:09:37;;;;;;;402.70;183.40;;;5.10;99.90;;;4.40;100.00;97746.66;6206634;23;20103;-68
2022/10/12 04:12:04;;;;;;;359.90;157.27;;;5.10;99.90;;;4.44;100.00;97739.78;6207626;23;20031;-68
2022/10/12 04:14:31;;;;;;;266.13;117.53;;;5.10;99.90;;;4.33;100.00;97745.06;6206440;23;20082;-68
2022/10/12 04:16:58;;;;;;;196.10;85.20;;;5.10;99.90;;;4.39;100.00;97744.97;6205994;23;20047;-68
2022/10/12 04:19:25;;;;;;;172.43;75.65;;;5.10;99.90;;;4.40;100.00;97749.22;6204840;23;20028;-68
2022/10/12 04:21:52;;;;;;;170.68;77.70;;;5.10;99.90;;;4.36;100.00;97752.75;6207364;23;20034;-68
2022/10/12 04:24:19;;;;;;;92.65;43.63;;;5.10;99.90;;;4.33;100.00;97753.66;6206519;23;20047;-68
2022/10/12 04:26:46;;;;;;;101.53;43.30;;;5.10;99.90;;;4.22;100.00;97757.22;6206491;23;20051;-68
2022/10/12 04:29:13;;;;;;;79.95;37.83;;;5.00;99.90;;;4.29;100.00;97756.25;6206485;23;20099;-69
2022/10/12 04:31:40;;;;;;;57.35;23.73;;;5.00;99.90;;;4.34;100.00;97745.06;6206046;23;20031;-68
2022/10/12 04:34:10;;;;;;;40.47;18.83;;;5.10;99.90;;;4.39;100.00;97750.13;6206878;23;20020;-69
2022/10/12 04:36:38;;;;;;;37.58;17.88;;;5.20;99.90;;;4.31;100.00;97742.53;6206554;23;20090;-68
2022/10/12 04:39:05;;;;;;;40.67;17.33;;;5.10;99.90;;;4.34;100.00;97750.19;6205869;23;20029;-68
2022/10/12 04:41:31;;;;;;;34.10;14.40;;;5.10;99.90;;;4.37;100.00;97749.28;6216865;23;20013;-67
2022/10/12 04:43:58;;;;;;;37.95;21.70;;;5.20;99.90;;;4.38;100.00;97749.28;6206688;23;20175;-68
2022/10/12 04:46:25;;;;;;;43.95;21.30;;;5.20;99.90;;;4.60;100.00;97747.19;6203911;23;20040;-68
2022/10/12 04:48:52;;;;;;;37.55;18.55;;;5.40;99.90;;;4.70;100.00;97739.34;6205171;23;20021;-68
2022/10/12 04:51:19;;;;;;;38.20;18.45;;;5.50;99.90;;;4.81;100.00;97724.56;6205475;23;20024;-68
2022/10/12 04:53:46;;;;;;;49.75;26.45;;;5.70;99.90;;;4.84;100.00;97732.25;6207088;23;20452;-68
2022/10/12 04:56:13;;;;;;;23.25;8.15;;;5.70;99.90;;;4.84;100.00;97732.25;6206342;23;20178;-69
2022/10/12 04:58:40;;;;;;;31.70;16.85;;;5.70;99.90;;;4.84;100.00;97737.41;6207402;23;20028;-68
2022/10/12 05:01:07;;;;;;;26.67;11.65;;;5.70;99.90;;;4.94;100.00;97738.09;6204305;23;20024;-68
2022/10/12 05:03:33;;;;;;;37.53;15.77;;;5.80;99.90;;;5.00;100.00;97736.25;6206888;23;20024;-68
2022/10/12 05:06:07;;;;;;;39.90;19.23;;;5.90;99.90;;;5.15;100.00;97734.28;6206314;23;20080;-68
2022/10/12 05:08:34;;;;;;;41.53;21.67;;;6.00;99.90;;;5.09;100.00;97734.41;6205576;23;20027;-68
2022/10/12 05:11:01;;;;;;;37.85;18.77;;;6.00;99.90;;;5.09;100.00;97737.81;6206836;23;20364;-68
2022/10/12 05:13:28;;;;;;;50.75;22.38;;;6.00;99.90;;;5.18;100.00;97727.34;6206908;23;20025;-67
2022/10/12 05:15:56;;;;;;;64.43;32.20;;;6.00;99.90;;;5.19;100.00;97728.19;6240144;23;20104;-69
2022/10/12 05:18:23;;;;;;;48.72;25.33;;;6.00;99.90;;;5.29;100.00;97728.88;6205244;23;20024;-68
2022/10/12 05:20:50;;;;;;;39.30;21.27;;;6.10;99.90;;;5.30;100.00;97726.28;6206564;23;20441;-68
2022/10/12 05:23:22;;;;;;;36.93;19.17;;;6.10;99.90;;;5.28;100.00;97728.03;6207144;23;20079;-68
2022/10/12 05:25:49;;;;;;;39.72;21.00;;;6.10;99.90;;;5.31;100.00;97725.38;6206696;23;20310;-68
2022/10/12 05:28:16;;;;;;;42.33;20.05;;;6.10;99.90;;;5.41;100.00;97724.34;6206170;23;20120;-69
2022/10/12 05:30:43;;;;;;;33.60;14.27;;;6.20;99.90;;;5.27;100.00;97725.47;6206656;23;20337;-69
2022/10/12 05:33:10;;;;;;;19.92;10.82;;;6.20;99.90;;;5.38;100.00;97723.53;6207687;23;20032;-69
2022/10/12 05:35:37;;;;;;;28.45;14.43;;;6.20;99.90;;;5.36;100.00;97730.44;6206242;23;20056;-68
2022/10/12 05:38:05;;;;;;;46.88;24.42;;;6.30;99.90;;;5.43;100.00;97725.16;6207245;23;20035;-68
2022/10/12 05:40:32;;;;;;;46.25;22.42;;;6.30;99.90;;;5.38;100.00;97729.56;6206914;23;20024;-68
2022/10/12 05:42:59;;;;;;;28.92;14.45;;;6.30;99.90;;;5.35;100.00;97732.19;6206422;23;20754;-68
2022/10/12 05:45:26;;;;;;;33.88;14.07;;;6.30;99.90;;;5.41;100.00;97729.50;6207284;23;20024;-68
2022/10/12 05:47:53;;;;;;;27.58;12.27;;;6.20;99.90;;;5.42;100.00;97730.34;6204021;23;20028;-68
2022/10/12 05:50:20;;;;;;;18.65;10.35;;;6.30;99.90;;;5.50;100.00;97727.63;6206078;23;20031;-68
2022/10/12 05:52:47;;;;;;;18.63;5.97;;;6.30;99.90;;;5.56;100.00;97732.63;6206027;23;20028;-69
2022/10/12 05:55:14;;;;;;;21.77;6.00;;;6.30;99.90;;;5.45;100.00;97732.84;6206600;23;20099;-68
2022/10/12 05:57:41;;;;;;;14.43;5.90;;;6.30;99.90;;;5.56;100.00;97719.75;6205305;23;20095;-68
2022/10/12 06:00:09;;;;;;;16.17;4.82;;;6.30;99.90;;;5.69;100.00;97723.78;6208668;23;20724;-68
2022/10/12 06:02:36;;;;;;;13.48;4.85;;;6.40;99.90;;;5.74;100.00;97715.97;6207028;23;20031;-68
2022/10/12 06:05:04;;;;;;;16.83;4.80;;;6.50;99.90;;;5.82;100.00;97720.06;6207336;23;20028;-68
2022/10/12 06:07:31;;;;;;;16.05;5.32;;;6.60;99.90;;;5.74;100.00;97718.53;6208741;23;20025;-69
2022/10/12 06:09:58;;;;;;;12.40;5.85;;;6.60;99.90;;;5.86;100.00;97707.97;6209355;23;20464;-69
2022/10/12 06:12:26;;;;;;;13.50;5.60;;;6.70;99.90;;;5.87;100.00;97713.09;6209378;23;20578;-68
2022/10/12 06:14:53;;;;;;;12.25;5.05;;;6.70;99.90;;;6.00;100.00;97710.28;6207675;23;20705;-67
2022/10/12 06:17:20;;;;;;;13.88;5.75;;;6.70;99.90;;;6.05;100.00;97719.59;6209059;23;20054;-67
2022/10/12 06:19:47;;;;;;;14.82;6.78;;;6.80;99.90;;;5.99;100.00;97719.72;6209489;23;20024;-67
2022/10/12 06:22:14;;;;;;;19.40;7.47;;;6.90;99.90;;;6.01;100.00;97719.69;6208987;23;20039;-69
2022/10/12 06:24:41;;;;;;;19.98;8.63;;;6.90;99.90;;;5.95;100.00;97724.97;6209917;23;20329;-67
2022/10/12 06:27:08;;;;;;;16.02;5.65;;;6.80;99.90;;;5.91;100.00;97724.19;6209526;23;20365;-68
2022/10/12 06:29:34;;;;;;;12.45;3.50;;;6.90;99.90;;;5.99;100.00;97724.03;6207316;23;20028;-68
2022/10/12 06:32:01;;;;;;;11.10;3.53;;;6.90;99.90;;;6.09;100.00;97725.56;6209420;23;20020;-68
2022/10/12 06:34:28;;;;;;;16.52;2.97;;;7.00;99.90;;;6.16;100.00;97723.66;6208914;23;20090;-67
2022/10/12 06:36:55;;;;;;;13.13;3.10;;;7.10;99.90;;;6.24;100.00;97717.44;6209422;23;20020;-67
2022/10/12 06:39:27;;;;;;;6.43;2.38;;;7.20;99.90;;;6.32;100.00;97719.00;6209358;23;20076;-69
2022/10/12 06:41:54;;;;;;;8.05;2.08;;;7.40;99.90;;;6.44;100.00;97719.56;6208199;23;20031;-69
2022/10/12 06:44:21;;;;;;;13.02;2.53;;;7.50;99.90;;;6.47;100.00;97718.66;6208530;23;20028;-69
2022/10/12 06:46:49;;;;;;;10.00;2.30;;;7.40;99.90;;;6.45;100.00;97722.97;6208203;23;20457;-69
2022/10/12 06:49:16;;;;;;;8.55;2.38;;;7.50;99.90;;;6.47;100.00;97721.22;6206044;23;20021;-69
2022/10/12 06:51:43;;;;;;;9.05;2.25;;;7.40;99.90;;;6.53;100.00;97717.66;6209041;23;20028;-69
2022/10/12 06:54:10;;;;;;;10.88;2.25;;;7.50;99.90;;;6.67;100.00;97718.16;6207483;23;20029;-68
2022/10/12 06:56:38;;;;;;;13.35;2.22;;;7.60;99.90;;;6.76;100.00;97717.09;6203709;23;20404;-68
2022/10/12 06:59:05;;;;;;;12.35;2.20;;;7.70;99.90;;;6.82;100.00;97719.50;6207297;23;20028;-68
2022/10/12 07:01:32;;;;;;;11.95;2.22;;;7.80;99.90;;;6.92;100.00;97723.56;6207743;23;20025;-69
2022/10/12 07:03:59;;;;;;;13.95;2.60;;;7.90;99.90;;;6.96;100.00;97719.19;6209214;23;20040;-68
2022/10/12 07:06:27;;;;;;;11.55;2.10;;;8.00;99.90;;;6.97;100.00;97715.69;6207318;23;20096;-68
2022/10/12 07:08:54;;;;;;;9.60;1.83;;;8.10;99.90;;;7.19;100.00;97718.56;6206345;23;20024;-68
2022/10/12 07:11:21;;;;;;;8.60;1.98;;;8.30;99.90;;;7.45;100.00;97712.69;6204590;23;20503;-68
2022/10/12 07:13:48;;;;;;;7.78;2.20;;;8.50;99.90;;;7.55;100.00;97724.47;6207945;23;20024;-67
2022/10/12 07:16:15;;;;;;;9.30;2.13;;;8.70;99.90;;;7.65;100.00;97730.22;6206337;23;20021;-68
2022/10/12 07:18:42;;;;;;;5.82;1.73;;;8.90;99.90;;;7.93;100.00;97731.09;6208033;23;20130;-68
2022/10/12 07:21:09;;;;;;;12.63;2.03;;;9.00;99.90;;;8.06;100.00;97730.75;6206498;23;20028;-66
2022/10/12 07:23:37;;;;;;;14.57;2.58;;;9.10;99.90;;;8.07;100.00;97730.66;6206975;23;20025;-68
2022/10/12 07:26:10;;;;;;;8.93;1.80;;;9.20;99.90;;;8.07;100.00;97733.25;6207024;23;20047;-68
2022/10/12 07:28:38;;;;;;;7.22;1.60;;;9.20;99.90;;;8.14;100.00;97741.69;6206978;23;20020;-67
2022/10/12 07:31:08;;;;;;;11.07;2.40;;;9.30;99.90;;;8.24;100.00;97737.09;6207497;23;20050;-68
2022/10/12 07:33:40;;;;;;;8.90;2.13;;;9.30;99.90;;;8.65;100.00;97740.16;6205372;23;20025;-68
2022/10/12 07:36:07;;;;;;;9.10;2.30;;;9.40;99.90;;;8.58;100.00;97744.69;6204184;23;20029;-68
2022/10/12 07:38:48;;;;;;;10.98;1.85;;;9.50;99.90;;;8.72;100.00;97754.59;6206886;23;20025;-68
2022/10/12 07:41:15;;;;;;;9.43;2.80;;;9.60;99.90;;;8.67;100.00;97759.06;6206419;23;20104;-68
2022/10/12 07:43:42;;;;;;;11.20;2.03;;;9.70;99.90;;;8.77;100.00;97750.94;6205635;23;20032;-67
2022/10/12 07:46:10;;;;;;;9.60;2.05;;;9.90;99.90;;;8.68;100.00;97771.09;6205232;23;20411;-68
2022/10/12 07:48:40;;;;;;;12.45;2.35;;;9.90;99.90;;;8.73;100.00;97777.81;6202410;23;20660;-68
2022/10/12 07:51:14;;;;;;;9.98;2.05;;;9.90;99.90;;;8.64;100.00;97783.28;6206322;23;20309;-68
2022/10/12 07:53:41;;;;;;;11.80;2.30;;;9.90;99.90;;;8.90;100.00;97784.22;6206847;23;20027;-68
2022/10/12 07:56:13;;;;;;;9.68;2.53;;;10.00;99.90;;;9.12;100.00;97777.44;6206557;23;20111;-68
2022/10/12 07:58:49;;;;;;;7.88;2.10;;;10.30;99.90;;;9.67;100.00;97776.38;6205917;23;20115;-68
2022/10/12 08:01:18;;;;;;;10.45;2.60;;;10.60;99.90;;;9.68;100.00;97786.72;6206068;23;20034;-68
2022/10/12 08:03:45;;;;;;;14.23;2.58;;;10.90;99.90;;;9.38;100.00;97799.00;6205244;23;20095;-68
2022/10/12 08:06:16;;;;;;;10.73;2.35;;;10.90;99.90;;;9.83;100.00;97787.91;6205103;23;20107;-67
2022/10/12 08:08:43;;;;;;;8.68;2.33;;;11.10;99.90;;;9.72;100.00;97798.66;6207770;23;20491;-70
2022/10/12 08:11:12;;;;;;;13.23;2.67;;;11.20;99.90;;;10.13;100.00;97790.28;6204773;23;20036;-68
2022/10/12 08:13:39;;;;;;;11.73;2.17;;;11.40;99.90;;;10.34;100.00;97801.63;6207189;23;20024;-68
2022/10/12 08:16:10;;;;;;;10.43;3.15;;;11.50;99.90;;;10.23;100.00;97796.81;6204425;23;20052;-68
2022/10/12 08:18:37;;;;;;;9.38;1.95;;;11.70;99.90;;;10.20;100.00;97809.91;6205042;23;20063;-68
2022/10/12 08:21:06;;;;;;;6.45;1.90;;;11.80;99.90;;;10.45;100.00;97807.25;6207365;23;20023;-68
2022/10/12 08:23:34;;;;;;;11.98;2.50;;;12.00;99.90;;;10.94;100.00;97800.13;6206132;23;20032;-68
2022/10/12 08:26:02;;;;;;;8.32;2.20;;;12.20;99.90;;;11.16;100.00;97809.66;6207142;23;20021;-68
2022/10/12 08:28:30;;;;;;;11.63;1.80;;;12.40;99.90;;;11.39;100.00;97806.94;6204992;23;20028;-68
2022/10/12 08:30:57;;;;;;;8.55;2.13;;;12.80;99.90;;;11.78;100.00;97816.53;6206948;23;20021;-68
2022/10/12 08:33:28;;;;;;;10.95;2.65;;;13.10;99.90;;;11.95;100.00;97815.84;6206799;23;20035;-68
2022/10/12 08:35:55;;;;;;;9.30;2.38;;;13.40;99.90;;;11.64;100.00;97829.28;6205414;23;20031;-68
2022/10/12 08:38:22;;;;;;;8.43;1.85;;;13.60;99.90;;;12.04;100.00;97824.97;6206264;23;20384;-68
2022/10/12 08:40:55;;;;;;;8.48;1.70;;;13.60;99.90;;;11.79;100.00;97848.56;6206821;23;20028;-67
2022/10/12 08:44:06;;;;;;;10.13;2.47;;;13.70;99.90;;;12.34;100.00;97841.81;6206071;23;20017;-68
2022/10/12 08:46:33;;;;;;;8.98;2.70;;;13.90;99.90;;;12.24;100.00;97837.94;6206076;23;20024;-68
2022/10/12 08:49:11;;;;;;;9.30;2.40;;;13.90;99.90;;;11.82;100.00;97853.66;6204788;23;20104;-68
2022/10/12 08:51:54;;;;;;;8.35;2.88;;;13.80;99.90;;;11.84;100.00;97847.47;6204368;23;20024;-68
2022/10/12 08:54:44;;;;;;;12.27;3.25;;;13.60;99.90;;;11.87;100.00;97849.09;6205334;23;20023;-68
2022/10/12 08:57:18;;;;;;;8.55;3.15;;;13.50;99.90;;;11.82;100.00;97851.91;6203718;23;20429;-68
2022/10/12 08:59:46;;;;;;;9.20;3.03;;;13.50;99.90;;;12.12;100.00;97843.69;6202335;23;20017;-68
2022/10/12 09:02:44;;;;;;;11.25;3.15;;;;;;;12.38;100.00;97857.28;6204317;23;20024;-68
2022/10/12 09:05:43;;;;;;;13.20;3.17;;;13.80;99.90;;;12.45;100.00;97859.56;6206300;23;20087;-68
2022/10/12 09:09:02;;;;;;;8.38;3.00;;;13.80;99.90;;;12.40;100.00;97860.66;6202696;23;20098;-68
2022/10/12 09:12:09;;;;;;;11.20;3.08;;;14.00;99.90;;;12.43;100.00;97865.72;6142408;23;20443;-68
2022/10/12 09:14:39;;;;;;;7.65;2.28;;;13.90;99.90;;;12.46;100.00;97863.84;6142772;23;20473;-68
2022/10/12 09:17:37;;;;;;;8.35;2.85;;;14.00;99.90;;;12.12;100.00;97872.31;6193584;23;20031;-68
2022/10/12 09:20:17;;;;;;;9.20;2.67;;;13.90;99.90;;;12.25;100.00;97870.88;6203406;23;20031;-68
2022/10/12 09:23:03;;;;;;;11.45;3.10;;;13.90;99.90;;;12.19;100.00;97867.69;6205059;23;20043;-68
2022/10/12 09:25:30;;;;;;;10.05;2.33;;;13.80;99.90;;;12.53;100.00;97875.66;6204339;23;20032;-69
2022/10/12 09:28:14;;;;;;;11.80;3.15;;;13.80;99.90;;;12.34;100.00;97867.84;6203529;23;20127;-69
2022/10/12 09:31:01;;;;;;;13.07;3.50;;;13.80;99.90;;;12.02;100.00;97866.69;6204309;23;20028;-67
2022/10/12 09:33:53;;;;;;;11.95;3.08;;;13.50;99.90;;;12.20;100.00;97865.03;6203267;23;20025;-67
2022/10/12 09:36:23;;;;;;;10.52;2.83;;;13.60;99.90;;;12.37;100.00;97855.59;6203565;23;20066;-67
2022/10/12 09:38:51;;;;;;;12.55;3.65;;;13.80;99.90;;;12.42;100.00;97862.28;6203003;23;20063;-68
2022/10/12 09:41:23;;;;;;;11.82;2.80;;;13.90;99.90;;;12.63;100.00;97857.00;6203326;23;20333;-68
2022/10/12 09:43:54;;;;;;;9.30;2.35;;;14.00;99.90;;;12.94;100.00;97854.66;6203666;23;20031;-67
2022/10/12 09:46:48;;;;;;;8.93;2.90;;;14.20;99.90;;;12.98;100.00;97843.16;6201713;23;20021;-68
2022/10/12 09:49:15;;;;;;;7.20;2.63;;;14.60;99.90;;;13.19;100.00;97848.25;6204710;23;20020;-68
2022/10/12 09:51:43;;;;;;;11.82;4.40;;;14.80;99.90;;;13.12;100.00;97845.09;6204745;23;20031;-68
2022/10/12 09:54:17;;;;;;;10.85;2.80;;;14.90;99.90;;;13.70;100.00;97841.38;6204750;23;20144;-68
2022/10/12 09:56:50;;;;;;;10.32;3.28;;;15.00;99.90;;;13.75;100.00;97835.94;6205591;23;20110;-68
2022/10/12 09:59:34;;;;;;;10.73;3.70;;;15.20;99.90;;;13.64;100.00;97846.94;6203728;23;20051;-68
2022/10/12 10:02:16;;;;;;;9.73;3.45;;;15.20;99.90;;;13.77;100.00;97841.91;6202356;23;20021;-68
2022/10/12 10:04:45;;;;;;;10.43;2.92;;;15.30;99.90;;;13.55;100.00;97848.25;6203881;23;20309;-69
2022/10/12 10:07:32;;;;;;;9.60;2.92;;;15.50;99.90;;;13.49;100.00;97840.72;6202710;23;20025;-69
2022/10/12 10:10:06;;;;;;;8.57;3.10;;;15.40;99.90;;;13.91;100.00;97847.28;6205323;23;20023;-68
2022/10/12 10:12:48;;;;;;;7.15;2.63;;;15.50;99.90;;;14.13;100.00;97848.75;6202187;23;20029;-68
2022/10/12 10:15:26;;;;;;;8.88;2.90;;;15.60;99.90;;;14.36;100.00;97845.75;6200716;23;20020;-68
2022/10/12 10:18:14;;;;;;;9.93;3.67;;;15.80;99.90;;;14.59;100.00;97841.09;6200035;23;20024;-68
2022/10/12 10:20:50;;;;;;;8.52;2.78;;;16.10;99.90;;;14.50;100.00;97839.78;6202337;23;20028;-68
2022/10/12 10:23:38;;;;;;;10.13;2.80;;;16.20;99.90;;;13.87;100.00;97856.19;6203118;23;20114;-67
2022/10/12 10:26:15;;;;;;;10.10;2.90;;;16.10;99.90;;;13.90;100.00;97857.78;6201386;23;20649;-68
2022/10/12 10:28:55;;;;;;;8.10;2.80;;;16.10;99.90;;;14.27;100.00;97861.09;6204000;23;20024;-68
2022/10/12 10:31:26;;;;;;;10.38;3.10;;;;;;;14.48;100.00;97859.09;6201875;23;20619;-67
2022/10/12 10:34:08;;;;;;;11.70;3.08;;;16.40;99.90;;;14.55;100.00;97853.50;6203067;23;20031;-67
2022/10/12 10:36:48;;;;;;;11.93;3.58;;;16.40;99.90;;;14.64;100.00;97863.47;6204137;23;20025;-67
2022/10/12 10:39:26;;;;;;;12.57;2.88;;;16.50;99.90;;;14.31;100.00;97875.69;6203221;23;20360;-67